sensor_id;sensor_type;location;lat;lon;timestamp;P1;durP1;ratioP1;P2;durP2;ratioP2
15261;SDS011;7733;51.554;13.590;2022-08-14T00:00:41;9.47;;;8.83;;
15261;SDS011;7733;51.554;13.590;2022-08-14T00:03:16;9.30;;;8.60;;
15261;SDS011;7733;51.554;13.590;2022-08-14T00:05:48;9.93;;;9.23;;
15261;SDS011;7733;51.554;13.590;2022-08-14T00:08:14;9.53;;;8.90;;
15261;SDS011;7733;51.554;13.590;2022-08-14T00:10:40;9.97;;;9.27;;
15261;SDS011;7733;51.554;13.590;2022-08-14T00:13:07;9.30;;;8.60;;
15261;SDS011;7733;51.554;13.590;2022-08-14T00:15:35;9.53;;;8.93;;
15261;SDS011;7733;51.554;13.590;2022-08-14T00:18:06;9.23;;;8.53;;
15261;SDS011;7733;51.554;13.590;2022-08-14T00:20:36;9.50;;;8.90;;
15261;SDS011;7733;51.554;13.590;2022-08-14T00:23:05;8.97;;;8.40;;
15261;SDS011;7733;51.554;13.590;2022-08-14T00:25:33;9.17;;;8.57;;
15261;SDS011;7733;51.554;13.590;2022-08-14T00:27:59;9.57;;;8.97;;
15261;SDS011;7733;51.554;13.590;2022-08-14T00:30:26;10.20;;;9.50;;
15261;SDS011;7733;51.554;13.590;2022-08-14T00:32:52;9.80;;;9.17;;
15261;SDS011;7733;51.554;13.590;2022-08-14T00:35:18;9.27;;;8.67;;
15261;SDS011;7733;51.554;13.590;2022-08-14T00:37:44;8.00;;;7.50;;
15261;SDS011;7733;51.554;13.590;2022-08-14T00:40:12;8.80;;;8.30;;
15261;SDS011;7733;51.554;13.590;2022-08-14T00:42:41;9.27;;;8.67;;
15261;SDS011;7733;51.554;13.590;2022-08-14T00:45:07;9.17;;;8.47;;
15261;SDS011;7733;51.554;13.590;2022-08-14T00:47:37;9.53;;;9.00;;
15261;SDS011;7733;51.554;13.590;2022-08-14T00:50:05;9.27;;;8.67;;
15261;SDS011;7733;51.554;13.590;2022-08-14T00:52:34;9.90;;;9.30;;
15261;SDS011;7733;51.554;13.590;2022-08-14T00:55:00;9.23;;;8.73;;
15261;SDS011;7733;51.554;13.590;2022-08-14T00:57:27;9.50;;;8.83;;
15261;SDS011;7733;51.554;13.590;2022-08-14T00:59:56;10.57;;;9.80;;
15261;SDS011;7733;51.554;13.590;2022-08-14T01:02:24;10.77;;;10.07;;
15261;SDS011;7733;51.554;13.590;2022-08-14T01:04:53;10.97;;;10.17;;
15261;SDS011;7733;51.554;13.590;2022-08-14T01:07:22;11.03;;;10.30;;
15261;SDS011;7733;51.554;13.590;2022-08-14T01:09:54;11.30;;;10.50;;
15261;SDS011;7733;51.554;13.590;2022-08-14T01:12:23;10.30;;;9.70;;
15261;SDS011;7733;51.554;13.590;2022-08-14T01:14:51;11.50;;;10.63;;
15261;SDS011;7733;51.554;13.590;2022-08-14T01:17:19;10.53;;;9.83;;
15261;SDS011;7733;51.554;13.590;2022-08-14T01:19:46;11.00;;;10.30;;
15261;SDS011;7733;51.554;13.590;2022-08-14T01:22:31;10.40;;;9.70;;
15261;SDS011;7733;51.554;13.590;2022-08-14T01:24:58;10.57;;;9.87;;
15261;SDS011;7733;51.554;13.590;2022-08-14T01:27:24;10.80;;;10.07;;
15261;SDS011;7733;51.554;13.590;2022-08-14T01:29:52;10.40;;;9.80;;
15261;SDS011;7733;51.554;13.590;2022-08-14T01:32:21;11.87;;;10.97;;
15261;SDS011;7733;51.554;13.590;2022-08-14T01:34:49;10.47;;;9.87;;
15261;SDS011;7733;51.554;13.590;2022-08-14T01:37:19;10.77;;;10.07;;
15261;SDS011;7733;51.554;13.590;2022-08-14T01:39:47;10.47;;;9.57;;
15261;SDS011;7733;51.554;13.590;2022-08-14T01:42:13;10.70;;;9.97;;
15261;SDS011;7733;51.554;13.590;2022-08-14T01:44:39;10.87;;;10.07;;
15261;SDS011;7733;51.554;13.590;2022-08-14T01:47:06;10.77;;;9.97;;
15261;SDS011;7733;51.554;13.590;2022-08-14T01:49:37;10.57;;;9.90;;
15261;SDS011;7733;51.554;13.590;2022-08-14T01:52:04;9.90;;;9.27;;
15261;SDS011;7733;51.554;13.590;2022-08-14T01:54:31;10.03;;;9.43;;
15261;SDS011;7733;51.554;13.590;2022-08-14T01:56:57;10.37;;;9.67;;
15261;SDS011;7733;51.554;13.590;2022-08-14T01:59:24;9.93;;;9.33;;
15261;SDS011;7733;51.554;13.590;2022-08-14T02:01:56;10.40;;;9.70;;
15261;SDS011;7733;51.554;13.590;2022-08-14T02:04:28;10.60;;;9.80;;
15261;SDS011;7733;51.554;13.590;2022-08-14T02:07:00;11.60;;;10.80;;
15261;SDS011;7733;51.554;13.590;2022-08-14T02:09:28;11.20;;;10.50;;
15261;SDS011;7733;51.554;13.590;2022-08-14T02:12:00;11.07;;;10.27;;
15261;SDS011;7733;51.554;13.590;2022-08-14T02:14:28;10.77;;;10.07;;
15261;SDS011;7733;51.554;13.590;2022-08-14T02:16:56;9.87;;;9.30;;
15261;SDS011;7733;51.554;13.590;2022-08-14T02:19:27;11.13;;;10.43;;
15261;SDS011;7733;51.554;13.590;2022-08-14T02:21:56;10.67;;;9.93;;
15261;SDS011;7733;51.554;13.590;2022-08-14T02:24:25;11.50;;;10.80;;
15261;SDS011;7733;51.554;13.590;2022-08-14T02:26:54;10.90;;;10.30;;
15261;SDS011;7733;51.554;13.590;2022-08-14T02:29:24;10.93;;;10.13;;
15261;SDS011;7733;51.554;13.590;2022-08-14T02:31:54;11.23;;;10.43;;
15261;SDS011;7733;51.554;13.590;2022-08-14T02:34:23;11.37;;;10.73;;
15261;SDS011;7733;51.554;13.590;2022-08-14T02:36:57;11.23;;;10.47;;
15261;SDS011;7733;51.554;13.590;2022-08-14T02:39:30;11.00;;;10.20;;
15261;SDS011;7733;51.554;13.590;2022-08-14T02:42:02;11.20;;;10.30;;
15261;SDS011;7733;51.554;13.590;2022-08-14T02:44:29;10.73;;;10.10;;
15261;SDS011;7733;51.554;13.590;2022-08-14T02:46:55;10.90;;;10.27;;
15261;SDS011;7733;51.554;13.590;2022-08-14T02:49:21;11.53;;;10.70;;
15261;SDS011;7733;51.554;13.590;2022-08-14T02:51:51;10.30;;;9.70;;
15261;SDS011;7733;51.554;13.590;2022-08-14T02:54:18;10.90;;;10.30;;
15261;SDS011;7733;51.554;13.590;2022-08-14T02:56:47;11.40;;;10.60;;
15261;SDS011;7733;51.554;13.590;2022-08-14T02:59:14;10.77;;;10.07;;
15261;SDS011;7733;51.554;13.590;2022-08-14T03:01:41;10.77;;;9.97;;
15261;SDS011;7733;51.554;13.590;2022-08-14T03:04:08;11.10;;;10.40;;
15261;SDS011;7733;51.554;13.590;2022-08-14T03:06:35;10.57;;;9.87;;
15261;SDS011;7733;51.554;13.590;2022-08-14T03:09:02;11.00;;;10.23;;
15261;SDS011;7733;51.554;13.590;2022-08-14T03:11:29;11.53;;;10.77;;
15261;SDS011;7733;51.554;13.590;2022-08-14T03:13:55;11.00;;;10.33;;
15261;SDS011;7733;51.554;13.590;2022-08-14T03:16:22;12.00;;;11.27;;
15261;SDS011;7733;51.554;13.590;2022-08-14T03:18:51;11.67;;;10.97;;
15261;SDS011;7733;51.554;13.590;2022-08-14T03:21:22;10.63;;;10.03;;
15261;SDS011;7733;51.554;13.590;2022-08-14T03:23:50;11.70;;;10.83;;
15261;SDS011;7733;51.554;13.590;2022-08-14T03:26:32;11.57;;;10.87;;
15261;SDS011;7733;51.554;13.590;2022-08-14T03:28:58;11.23;;;10.53;;
15261;SDS011;7733;51.554;13.590;2022-08-14T03:31:25;10.40;;;9.63;;
15261;SDS011;7733;51.554;13.590;2022-08-14T03:33:50;11.43;;;10.73;;
15261;SDS011;7733;51.554;13.590;2022-08-14T03:36:17;11.13;;;10.43;;
15261;SDS011;7733;51.554;13.590;2022-08-14T03:38:45;10.53;;;9.93;;
15261;SDS011;7733;51.554;13.590;2022-08-14T03:41:16;11.10;;;10.30;;
15261;SDS011;7733;51.554;13.590;2022-08-14T03:43:49;10.83;;;10.13;;
15261;SDS011;7733;51.554;13.590;2022-08-14T03:46:21;11.07;;;10.47;;
15261;SDS011;7733;51.554;13.590;2022-08-14T03:48:50;11.10;;;10.30;;
15261;SDS011;7733;51.554;13.590;2022-08-14T03:51:18;11.07;;;10.37;;
15261;SDS011;7733;51.554;13.590;2022-08-14T03:53:45;11.17;;;10.37;;
15261;SDS011;7733;51.554;13.590;2022-08-14T03:56:12;10.87;;;10.27;;
15261;SDS011;7733;51.554;13.590;2022-08-14T03:58:41;11.33;;;10.53;;
15261;SDS011;7733;51.554;13.590;2022-08-14T04:01:20;10.77;;;9.87;;
15261;SDS011;7733;51.554;13.590;2022-08-14T04:03:49;11.00;;;10.30;;
15261;SDS011;7733;51.554;13.590;2022-08-14T04:06:18;11.37;;;10.47;;
15261;SDS011;7733;51.554;13.590;2022-08-14T04:08:45;10.83;;;10.13;;
15261;SDS011;7733;51.554;13.590;2022-08-14T04:11:17;10.90;;;10.10;;
15261;SDS011;7733;51.554;13.590;2022-08-14T04:13:44;11.10;;;10.20;;
15261;SDS011;7733;51.554;13.590;2022-08-14T04:16:12;11.00;;;10.30;;
15261;SDS011;7733;51.554;13.590;2022-08-14T04:18:43;10.97;;;10.30;;
15261;SDS011;7733;51.554;13.590;2022-08-14T04:21:12;12.17;;;11.17;;
15261;SDS011;7733;51.554;13.590;2022-08-14T04:23:40;11.53;;;10.80;;
15261;SDS011;7733;51.554;13.590;2022-08-14T04:26:09;11.67;;;10.97;;
15261;SDS011;7733;51.554;13.590;2022-08-14T04:28:38;12.33;;;11.53;;
15261;SDS011;7733;51.554;13.590;2022-08-14T04:31:06;12.40;;;11.40;;
15261;SDS011;7733;51.554;13.590;2022-08-14T04:33:33;12.17;;;11.27;;
15261;SDS011;7733;51.554;13.590;2022-08-14T04:36:00;11.00;;;10.30;;
15261;SDS011;7733;51.554;13.590;2022-08-14T04:38:26;10.93;;;10.23;;
15261;SDS011;7733;51.554;13.590;2022-08-14T04:41:10;11.73;;;10.83;;
15261;SDS011;7733;51.554;13.590;2022-08-14T04:43:54;11.87;;;11.00;;
15261;SDS011;7733;51.554;13.590;2022-08-14T04:46:21;11.30;;;10.70;;
15261;SDS011;7733;51.554;13.590;2022-08-14T04:48:47;11.87;;;10.90;;
15261;SDS011;7733;51.554;13.590;2022-08-14T04:51:17;11.27;;;10.43;;
15261;SDS011;7733;51.554;13.590;2022-08-14T04:53:46;12.50;;;11.60;;
15261;SDS011;7733;51.554;13.590;2022-08-14T04:56:14;12.00;;;11.30;;
15261;SDS011;7733;51.554;13.590;2022-08-14T04:58:46;11.70;;;10.90;;
15261;SDS011;7733;51.554;13.590;2022-08-14T05:01:15;11.20;;;10.03;;
15261;SDS011;7733;51.554;13.590;2022-08-14T05:03:41;11.63;;;10.87;;
15261;SDS011;7733;51.554;13.590;2022-08-14T05:06:08;11.30;;;10.60;;
15261;SDS011;7733;51.554;13.590;2022-08-14T05:08:36;11.90;;;11.00;;
15261;SDS011;7733;51.554;13.590;2022-08-14T05:11:05;12.20;;;11.40;;
15261;SDS011;7733;51.554;13.590;2022-08-14T05:13:32;13.20;;;12.30;;
15261;SDS011;7733;51.554;13.590;2022-08-14T05:16:00;13.63;;;12.40;;
15261;SDS011;7733;51.554;13.590;2022-08-14T05:18:28;14.20;;;13.30;;
15261;SDS011;7733;51.554;13.590;2022-08-14T05:20:59;13.60;;;12.60;;
15261;SDS011;7733;51.554;13.590;2022-08-14T05:23:28;13.73;;;12.73;;
15261;SDS011;7733;51.554;13.590;2022-08-14T05:25:57;14.73;;;13.63;;
15261;SDS011;7733;51.554;13.590;2022-08-14T05:28:28;13.90;;;12.90;;
15261;SDS011;7733;51.554;13.590;2022-08-14T05:30:57;15.00;;;13.83;;
15261;SDS011;7733;51.554;13.590;2022-08-14T05:33:27;13.93;;;13.03;;
15261;SDS011;7733;51.554;13.590;2022-08-14T05:35:55;13.37;;;12.47;;
15261;SDS011;7733;51.554;13.590;2022-08-14T05:38:25;13.27;;;12.47;;
15261;SDS011;7733;51.554;13.590;2022-08-14T05:41:00;13.60;;;12.70;;
15261;SDS011;7733;51.554;13.590;2022-08-14T05:43:37;14.30;;;13.40;;
15261;SDS011;7733;51.554;13.590;2022-08-14T05:46:04;14.13;;;13.13;;
15261;SDS011;7733;51.554;13.590;2022-08-14T05:48:33;13.77;;;12.83;;
15261;SDS011;7733;51.554;13.590;2022-08-14T05:50:59;14.20;;;13.30;;
15261;SDS011;7733;51.554;13.590;2022-08-14T05:53:25;14.07;;;12.97;;
15261;SDS011;7733;51.554;13.590;2022-08-14T05:55:52;13.87;;;12.97;;
15261;SDS011;7733;51.554;13.590;2022-08-14T05:58:19;13.43;;;12.53;;
15261;SDS011;7733;51.554;13.590;2022-08-14T06:00:46;13.37;;;12.57;;
15261;SDS011;7733;51.554;13.590;2022-08-14T06:03:15;15.13;;;14.13;;
15261;SDS011;7733;51.554;13.590;2022-08-14T06:05:47;15.60;;;14.50;;
15261;SDS011;7733;51.554;13.590;2022-08-14T06:08:18;15.10;;;14.00;;
15261;SDS011;7733;51.554;13.590;2022-08-14T06:10:54;15.10;;;14.13;;
15261;SDS011;7733;51.554;13.590;2022-08-14T06:13:27;14.77;;;13.87;;
15261;SDS011;7733;51.554;13.590;2022-08-14T06:15:54;15.87;;;14.77;;
15261;SDS011;7733;51.554;13.590;2022-08-14T06:18:20;14.93;;;14.03;;
15261;SDS011;7733;51.554;13.590;2022-08-14T06:20:46;14.87;;;13.77;;
15261;SDS011;7733;51.554;13.590;2022-08-14T06:23:11;15.23;;;14.20;;
15261;SDS011;7733;51.554;13.590;2022-08-14T06:25:37;14.70;;;13.80;;
15261;SDS011;7733;51.554;13.590;2022-08-14T06:28:03;14.30;;;13.17;;
15261;SDS011;7733;51.554;13.590;2022-08-14T06:30:30;13.83;;;12.83;;
15261;SDS011;7733;51.554;13.590;2022-08-14T06:32:58;13.03;;;12.17;;
15261;SDS011;7733;51.554;13.590;2022-08-14T06:35:24;13.70;;;12.80;;
15261;SDS011;7733;51.554;13.590;2022-08-14T06:37:50;12.73;;;11.90;;
15261;SDS011;7733;51.554;13.590;2022-08-14T06:40:23;13.07;;;12.07;;
15261;SDS011;7733;51.554;13.590;2022-08-14T06:43:00;12.03;;;11.40;;
15261;SDS011;7733;51.554;13.590;2022-08-14T06:45:31;11.23;;;10.53;;
15261;SDS011;7733;51.554;13.590;2022-08-14T06:47:59;12.37;;;11.60;;
15261;SDS011;7733;51.554;13.590;2022-08-14T06:50:27;11.13;;;10.43;;
15261;SDS011;7733;51.554;13.590;2022-08-14T06:52:55;10.07;;;9.37;;
15261;SDS011;7733;51.554;13.590;2022-08-14T06:55:24;9.77;;;9.20;;
15261;SDS011;7733;51.554;13.590;2022-08-14T06:57:51;10.73;;;9.97;;
15261;SDS011;7733;51.554;13.590;2022-08-14T07:00:17;10.50;;;9.80;;
15261;SDS011;7733;51.554;13.590;2022-08-14T07:02:49;10.87;;;10.17;;
15261;SDS011;7733;51.554;13.590;2022-08-14T07:05:35;9.73;;;9.07;;
15261;SDS011;7733;51.554;13.590;2022-08-14T07:10:53;10.93;;;10.23;;
15261;SDS011;7733;51.554;13.590;2022-08-14T07:13:22;10.30;;;9.60;;
15261;SDS011;7733;51.554;13.590;2022-08-14T07:15:50;9.67;;;9.03;;
15261;SDS011;7733;51.554;13.590;2022-08-14T07:18:28;8.83;;;8.20;;
15261;SDS011;7733;51.554;13.590;2022-08-14T07:20:58;8.83;;;7.93;;
15261;SDS011;7733;51.554;13.590;2022-08-14T07:23:26;8.50;;;8.03;;
15261;SDS011;7733;51.554;13.590;2022-08-14T07:25:53;7.87;;;7.37;;
15261;SDS011;7733;51.554;13.590;2022-08-14T07:28:22;7.57;;;7.07;;
15261;SDS011;7733;51.554;13.590;2022-08-14T07:30:52;7.33;;;6.93;;
15261;SDS011;7733;51.554;13.590;2022-08-14T07:33:27;7.20;;;6.80;;
15261;SDS011;7733;51.554;13.590;2022-08-14T07:35:56;7.23;;;6.80;;
15261;SDS011;7733;51.554;13.590;2022-08-14T07:38:28;7.13;;;6.83;;
15261;SDS011;7733;51.554;13.590;2022-08-14T07:40:54;6.40;;;6.10;;
15261;SDS011;7733;51.554;13.590;2022-08-14T07:43:20;6.67;;;6.27;;
15261;SDS011;7733;51.554;13.590;2022-08-14T07:45:47;6.93;;;6.43;;
15261;SDS011;7733;51.554;13.590;2022-08-14T07:48:12;6.90;;;6.50;;
15261;SDS011;7733;51.554;13.590;2022-08-14T07:50:38;7.00;;;6.60;;
15261;SDS011;7733;51.554;13.590;2022-08-14T07:53:04;7.37;;;6.77;;
15261;SDS011;7733;51.554;13.590;2022-08-14T07:55:31;7.03;;;6.57;;
15261;SDS011;7733;51.554;13.590;2022-08-14T07:57:57;7.17;;;6.77;;
15261;SDS011;7733;51.554;13.590;2022-08-14T08:00:23;7.40;;;7.10;;
15261;SDS011;7733;51.554;13.590;2022-08-14T08:02:52;7.73;;;7.33;;
15261;SDS011;7733;51.554;13.590;2022-08-14T08:05:20;6.53;;;6.13;;
15261;SDS011;7733;51.554;13.590;2022-08-14T08:07:49;6.43;;;6.13;;
15261;SDS011;7733;51.554;13.590;2022-08-14T08:10:23;6.90;;;6.30;;
15261;SDS011;7733;51.554;13.590;2022-08-14T08:15:37;7.00;;;6.50;;
15261;SDS011;7733;51.554;13.590;2022-08-14T08:18:06;6.33;;;5.93;;
15261;SDS011;7733;51.554;13.590;2022-08-14T08:20:35;5.67;;;5.23;;
15261;SDS011;7733;51.554;13.590;2022-08-14T08:23:05;5.33;;;5.13;;
15261;SDS011;7733;51.554;13.590;2022-08-14T08:25:34;5.70;;;5.33;;
15261;SDS011;7733;51.554;13.590;2022-08-14T08:28:11;5.43;;;5.13;;
15261;SDS011;7733;51.554;13.590;2022-08-14T08:30:52;4.77;;;4.47;;
15261;SDS011;7733;51.554;13.590;2022-08-14T08:33:21;4.73;;;4.43;;
15261;SDS011;7733;51.554;13.590;2022-08-14T08:35:51;4.50;;;4.30;;
15261;SDS011;7733;51.554;13.590;2022-08-14T08:38:22;4.70;;;4.33;;
15261;SDS011;7733;51.554;13.590;2022-08-14T08:40:52;5.30;;;4.87;;
15261;SDS011;7733;51.554;13.590;2022-08-14T08:43:23;4.50;;;4.20;;
15261;SDS011;7733;51.554;13.590;2022-08-14T08:45:58;4.63;;;4.27;;
15261;SDS011;7733;51.554;13.590;2022-08-14T08:48:29;4.67;;;4.27;;
15261;SDS011;7733;51.554;13.590;2022-08-14T08:59:25;4.07;;;3.77;;
15261;SDS011;7733;51.554;13.590;2022-08-14T09:01:58;3.77;;;3.60;;
15261;SDS011;7733;51.554;13.590;2022-08-14T09:04:28;3.80;;;3.70;;
15261;SDS011;7733;51.554;13.590;2022-08-14T09:06:59;4.10;;;3.87;;
15261;SDS011;7733;51.554;13.590;2022-08-14T09:09:25;4.20;;;3.90;;
15261;SDS011;7733;51.554;13.590;2022-08-14T09:11:56;4.07;;;3.80;;
15261;SDS011;7733;51.554;13.590;2022-08-14T09:14:26;3.83;;;3.73;;
15261;SDS011;7733;51.554;13.590;2022-08-14T09:16:55;4.33;;;4.00;;
15261;SDS011;7733;51.554;13.590;2022-08-14T09:19:23;3.67;;;3.40;;
15261;SDS011;7733;51.554;13.590;2022-08-14T09:21:52;4.53;;;4.13;;
15261;SDS011;7733;51.554;13.590;2022-08-14T09:24:18;4.80;;;4.23;;
15261;SDS011;7733;51.554;13.590;2022-08-14T09:26:45;4.23;;;4.00;;
15261;SDS011;7733;51.554;13.590;2022-08-14T09:29:11;3.73;;;3.60;;
15261;SDS011;7733;51.554;13.590;2022-08-14T09:31:39;4.20;;;3.80;;
15261;SDS011;7733;51.554;13.590;2022-08-14T09:37:16;3.87;;;3.67;;
15261;SDS011;7733;51.554;13.590;2022-08-14T09:40:07;3.93;;;3.67;;
15261;SDS011;7733;51.554;13.590;2022-08-14T09:43:24;5.07;;;3.90;;
15261;SDS011;7733;51.554;13.590;2022-08-14T09:46:07;4.10;;;3.93;;
15261;SDS011;7733;51.554;13.590;2022-08-14T09:48:33;3.63;;;3.53;;
15261;SDS011;7733;51.554;13.590;2022-08-14T09:51:01;3.93;;;3.73;;
15261;SDS011;7733;51.554;13.590;2022-08-14T09:53:41;4.03;;;3.83;;
15261;SDS011;7733;51.554;13.590;2022-08-14T09:56:23;4.40;;;3.60;;
15261;SDS011;7733;51.554;13.590;2022-08-14T09:58:49;4.77;;;4.40;;
15261;SDS011;7733;51.554;13.590;2022-08-14T10:01:16;3.83;;;3.50;;
15261;SDS011;7733;51.554;13.590;2022-08-14T10:03:48;4.27;;;4.03;;
15261;SDS011;7733;51.554;13.590;2022-08-14T10:06:21;4.20;;;3.90;;
15261;SDS011;7733;51.554;13.590;2022-08-14T10:08:58;4.50;;;4.20;;
15261;SDS011;7733;51.554;13.590;2022-08-14T10:11:27;4.60;;;4.40;;
15261;SDS011;7733;51.554;13.590;2022-08-14T10:13:58;4.10;;;3.90;;
15261;SDS011;7733;51.554;13.590;2022-08-14T10:16:43;4.47;;;4.00;;
15261;SDS011;7733;51.554;13.590;2022-08-14T10:19:13;4.07;;;3.77;;
15261;SDS011;7733;51.554;13.590;2022-08-14T10:21:43;8.90;;;4.30;;
15261;SDS011;7733;51.554;13.590;2022-08-14T10:24:23;3.90;;;3.60;;
15261;SDS011;7733;51.554;13.590;2022-08-14T10:26:55;4.47;;;4.00;;
15261;SDS011;7733;51.554;13.590;2022-08-14T10:29:34;4.20;;;3.90;;
15261;SDS011;7733;51.554;13.590;2022-08-14T10:32:03;4.17;;;3.93;;
15261;SDS011;7733;51.554;13.590;2022-08-14T10:34:35;3.83;;;3.60;;
15261;SDS011;7733;51.554;13.590;2022-08-14T10:37:07;4.40;;;4.00;;
15261;SDS011;7733;51.554;13.590;2022-08-14T10:39:38;3.90;;;3.60;;
15261;SDS011;7733;51.554;13.590;2022-08-14T10:42:06;3.97;;;3.67;;
15261;SDS011;7733;51.554;13.590;2022-08-14T10:44:42;3.67;;;3.57;;
15261;SDS011;7733;51.554;13.590;2022-08-14T10:47:12;4.27;;;3.90;;
15261;SDS011;7733;51.554;13.590;2022-08-14T10:49:41;3.97;;;3.77;;
15261;SDS011;7733;51.554;13.590;2022-08-14T10:52:21;3.70;;;3.60;;
15261;SDS011;7733;51.554;13.590;2022-08-14T10:54:50;4.00;;;3.73;;
15261;SDS011;7733;51.554;13.590;2022-08-14T10:57:18;4.00;;;3.70;;
15261;SDS011;7733;51.554;13.590;2022-08-14T10:59:49;3.87;;;3.67;;
15261;SDS011;7733;51.554;13.590;2022-08-14T11:02:24;4.07;;;3.87;;
15261;SDS011;7733;51.554;13.590;2022-08-14T11:04:58;3.83;;;3.53;;
15261;SDS011;7733;51.554;13.590;2022-08-14T11:07:38;3.73;;;3.53;;
15261;SDS011;7733;51.554;13.590;2022-08-14T11:10:11;4.03;;;3.73;;
15261;SDS011;7733;51.554;13.590;2022-08-14T11:12:43;4.53;;;3.80;;
15261;SDS011;7733;51.554;13.590;2022-08-14T11:15:13;3.77;;;3.63;;
15261;SDS011;7733;51.554;13.590;2022-08-14T11:17:45;4.03;;;3.83;;
15261;SDS011;7733;51.554;13.590;2022-08-14T11:20:13;4.40;;;4.10;;
15261;SDS011;7733;51.554;13.590;2022-08-14T11:22:42;4.70;;;3.67;;
15261;SDS011;7733;51.554;13.590;2022-08-14T11:25:10;3.83;;;3.63;;
15261;SDS011;7733;51.554;13.590;2022-08-14T11:27:40;4.17;;;3.87;;
15261;SDS011;7733;51.554;13.590;2022-08-14T11:30:11;3.90;;;3.70;;
15261;SDS011;7733;51.554;13.590;2022-08-14T11:32:43;3.53;;;3.30;;
15261;SDS011;7733;51.554;13.590;2022-08-14T11:35:13;3.57;;;3.37;;
15261;SDS011;7733;51.554;13.590;2022-08-14T11:37:55;4.03;;;3.73;;
15261;SDS011;7733;51.554;13.590;2022-08-14T11:40:27;3.73;;;3.43;;
15261;SDS011;7733;51.554;13.590;2022-08-14T11:42:58;4.50;;;4.07;;
15261;SDS011;7733;51.554;13.590;2022-08-14T11:45:27;4.23;;;4.00;;
15261;SDS011;7733;51.554;13.590;2022-08-14T11:47:59;4.77;;;4.27;;
15261;SDS011;7733;51.554;13.590;2022-08-14T11:50:37;4.53;;;4.33;;
15261;SDS011;7733;51.554;13.590;2022-08-14T11:53:04;4.47;;;4.17;;
15261;SDS011;7733;51.554;13.590;2022-08-14T11:55:35;4.30;;;4.10;;
15261;SDS011;7733;51.554;13.590;2022-08-14T11:58:04;4.33;;;4.03;;
15261;SDS011;7733;51.554;13.590;2022-08-14T12:00:48;4.80;;;4.30;;
15261;SDS011;7733;51.554;13.590;2022-08-14T12:03:18;7.50;;;4.70;;
15261;SDS011;7733;51.554;13.590;2022-08-14T12:05:44;4.30;;;4.07;;
15261;SDS011;7733;51.554;13.590;2022-08-14T12:08:10;4.60;;;4.27;;
15261;SDS011;7733;51.554;13.590;2022-08-14T12:10:37;4.60;;;4.30;;
15261;SDS011;7733;51.554;13.590;2022-08-14T12:13:09;4.93;;;4.50;;
15261;SDS011;7733;51.554;13.590;2022-08-14T12:15:40;4.67;;;4.23;;
15261;SDS011;7733;51.554;13.590;2022-08-14T12:18:08;4.37;;;4.00;;
15261;SDS011;7733;51.554;13.590;2022-08-14T12:20:36;4.50;;;4.30;;
15261;SDS011;7733;51.554;13.590;2022-08-14T12:23:21;5.00;;;4.60;;
15261;SDS011;7733;51.554;13.590;2022-08-14T12:26:00;4.50;;;4.30;;
15261;SDS011;7733;51.554;13.590;2022-08-14T12:28:32;4.47;;;4.07;;
15261;SDS011;7733;51.554;13.590;2022-08-14T12:30:58;4.67;;;4.17;;
15261;SDS011;7733;51.554;13.590;2022-08-14T12:35:57;4.00;;;3.70;;
15261;SDS011;7733;51.554;13.590;2022-08-14T12:38:44;5.23;;;4.20;;
15261;SDS011;7733;51.554;13.590;2022-08-14T12:41:14;4.40;;;4.00;;
15261;SDS011;7733;51.554;13.590;2022-08-14T12:46:23;3.77;;;3.67;;
15261;SDS011;7733;51.554;13.590;2022-08-14T12:49:01;4.40;;;4.10;;
15261;SDS011;7733;51.554;13.590;2022-08-14T12:51:37;4.07;;;3.77;;
15261;SDS011;7733;51.554;13.590;2022-08-14T12:54:11;3.70;;;3.60;;
15261;SDS011;7733;51.554;13.590;2022-08-14T12:56:43;3.67;;;3.57;;
15261;SDS011;7733;51.554;13.590;2022-08-14T12:59:10;3.57;;;3.27;;
15261;SDS011;7733;51.554;13.590;2022-08-14T13:01:38;3.90;;;3.67;;
15261;SDS011;7733;51.554;13.590;2022-08-14T13:06:39;4.07;;;3.67;;
15261;SDS011;7733;51.554;13.590;2022-08-14T13:09:09;3.60;;;3.30;;
15261;SDS011;7733;51.554;13.590;2022-08-14T13:11:40;3.70;;;3.40;;
15261;SDS011;7733;51.554;13.590;2022-08-14T13:14:11;3.70;;;3.50;;
15261;SDS011;7733;51.554;13.590;2022-08-14T13:16:40;3.93;;;3.50;;
15261;SDS011;7733;51.554;13.590;2022-08-14T13:19:14;3.60;;;3.40;;
15261;SDS011;7733;51.554;13.590;2022-08-14T13:21:42;3.50;;;3.30;;
15261;SDS011;7733;51.554;13.590;2022-08-14T13:24:12;3.53;;;3.33;;
15261;SDS011;7733;51.554;13.590;2022-08-14T13:26:46;3.73;;;3.47;;
15261;SDS011;7733;51.554;13.590;2022-08-14T13:29:24;3.27;;;3.07;;
15261;SDS011;7733;51.554;13.590;2022-08-14T13:31:53;3.70;;;3.50;;
15261;SDS011;7733;51.554;13.590;2022-08-14T13:34:25;3.40;;;3.10;;
15261;SDS011;7733;51.554;13.590;2022-08-14T13:36:53;3.47;;;3.27;;
15261;SDS011;7733;51.554;13.590;2022-08-14T13:39:21;3.60;;;3.30;;
15261;SDS011;7733;51.554;13.590;2022-08-14T13:41:49;3.40;;;3.20;;
15261;SDS011;7733;51.554;13.590;2022-08-14T13:44:15;3.67;;;3.47;;
15261;SDS011;7733;51.554;13.590;2022-08-14T13:46:46;3.53;;;3.23;;
15261;SDS011;7733;51.554;13.590;2022-08-14T13:49:13;3.20;;;3.00;;
15261;SDS011;7733;51.554;13.590;2022-08-14T13:51:40;3.50;;;3.20;;
15261;SDS011;7733;51.554;13.590;2022-08-14T13:54:12;3.63;;;3.33;;
15261;SDS011;7733;51.554;13.590;2022-08-14T13:56:43;3.53;;;3.33;;
15261;SDS011;7733;51.554;13.590;2022-08-14T13:59:11;3.77;;;3.47;;
15261;SDS011;7733;51.554;13.590;2022-08-14T14:01:38;3.43;;;3.23;;
15261;SDS011;7733;51.554;13.590;2022-08-14T14:04:12;3.80;;;3.60;;
15261;SDS011;7733;51.554;13.590;2022-08-14T14:06:45;3.30;;;3.20;;
15261;SDS011;7733;51.554;13.590;2022-08-14T14:09:14;3.70;;;3.50;;
15261;SDS011;7733;51.554;13.590;2022-08-14T14:11:49;3.77;;;3.47;;
15261;SDS011;7733;51.554;13.590;2022-08-14T14:14:15;3.53;;;3.33;;
15261;SDS011;7733;51.554;13.590;2022-08-14T14:16:44;3.97;;;3.67;;
15261;SDS011;7733;51.554;13.590;2022-08-14T14:19:11;3.50;;;3.40;;
15261;SDS011;7733;51.554;13.590;2022-08-14T14:21:37;3.97;;;3.47;;
15261;SDS011;7733;51.554;13.590;2022-08-14T14:24:03;3.70;;;3.50;;
15261;SDS011;7733;51.554;13.590;2022-08-14T14:26:29;4.17;;;3.30;;
15261;SDS011;7733;51.554;13.590;2022-08-14T14:28:56;3.57;;;3.37;;
15261;SDS011;7733;51.554;13.590;2022-08-14T14:31:25;3.83;;;3.53;;
15261;SDS011;7733;51.554;13.590;2022-08-14T14:33:57;3.60;;;3.40;;
15261;SDS011;7733;51.554;13.590;2022-08-14T14:36:28;3.90;;;3.70;;
15261;SDS011;7733;51.554;13.590;2022-08-14T14:39:00;3.97;;;3.70;;
15261;SDS011;7733;51.554;13.590;2022-08-14T14:41:30;4.30;;;4.00;;
15261;SDS011;7733;51.554;13.590;2022-08-14T14:44:02;3.83;;;3.67;;
15261;SDS011;7733;51.554;13.590;2022-08-14T14:46:31;3.67;;;3.43;;
15261;SDS011;7733;51.554;13.590;2022-08-14T14:49:03;4.00;;;3.80;;
15261;SDS011;7733;51.554;13.590;2022-08-14T14:51:37;4.10;;;3.90;;
15261;SDS011;7733;51.554;13.590;2022-08-14T14:54:04;3.80;;;3.50;;
15261;SDS011;7733;51.554;13.590;2022-08-14T14:56:33;4.33;;;3.93;;
15261;SDS011;7733;51.554;13.590;2022-08-14T14:58:59;3.57;;;3.47;;
15261;SDS011;7733;51.554;13.590;2022-08-14T15:01:25;3.63;;;3.40;;
15261;SDS011;7733;51.554;13.590;2022-08-14T15:03:51;4.00;;;3.70;;
15261;SDS011;7733;51.554;13.590;2022-08-14T15:06:21;17.10;;;4.23;;
15261;SDS011;7733;51.554;13.590;2022-08-14T15:08:49;6.50;;;3.87;;
15261;SDS011;7733;51.554;13.590;2022-08-14T15:11:16;3.50;;;3.30;;
15261;SDS011;7733;51.554;13.590;2022-08-14T15:13:43;3.93;;;3.63;;
15261;SDS011;7733;51.554;13.590;2022-08-14T15:16:09;3.33;;;3.23;;
15261;SDS011;7733;51.554;13.590;2022-08-14T15:18:36;3.50;;;3.30;;